sensor_id;sensor_type;location;lat;lon;timestamp;pressure;altitude;pressure_sealevel;temperature;humidity
4576;BME280;2300;51.874;8.430;2023-12-07T00:00:15;101046.59;;;2.69;100.00
4576;BME280;2300;51.874;8.430;2023-12-07T00:02:42;101054.22;;;2.74;100.00
4576;BME280;2300;51.874;8.430;2023-12-07T00:05:08;101057.09;;;2.72;100.00
4576;BME280;2300;51.874;8.430;2023-12-07T00:07:35;101039.84;;;2.57;100.00
4576;BME280;2300;51.874;8.430;2023-12-07T00:10:04;101051.69;;;2.56;100.00
4576;BME280;2300;51.874;8.430;2023-12-07T00:12:31;101047.97;;;2.49;100.00
4576;BME280;2300;51.874;8.430;2023-12-07T00:14:57;101063.22;;;2.50;100.00
4576;BME280;2300;51.874;8.430;2023-12-07T00:17:24;101059.31;;;2.45;100.00
4576;BME280;2300;51.874;8.430;2023-12-07T00:19:50;101058.84;;;2.41;100.00
4576;BME280;2300;51.874;8.430;2023-12-07T00:22:18;101072.03;;;2.44;100.00
4576;BME280;2300;51.874;8.430;2023-12-07T00:24:45;101068.81;;;2.41;100.00
4576;BME280;2300;51.874;8.430;2023-12-07T00:27:17;101076.44;;;2.45;100.00
4576;BME280;2300;51.874;8.430;2023-12-07T00:29:44;101067.13;;;2.31;100.00
4576;BME280;2300;51.874;8.430;2023-12-07T00:32:10;101067.31;;;2.30;100.00
4576;BME280;2300;51.874;8.430;2023-12-07T00:34:37;101085.94;;;2.25;100.00
4576;BME280;2300;51.874;8.430;2023-12-07T00:37:03;101093.72;;;2.20;100.00
4576;BME280;2300;51.874;8.430;2023-12-07T00:39:30;101085.94;;;2.25;100.00
4576;BME280;2300;51.874;8.430;2023-12-07T00:41:57;101088.81;;;2.40;100.00
4576;BME280;2300;51.874;8.430;2023-12-07T00:44:25;101087.63;;;2.26;100.00
4576;BME280;2300;51.874;8.430;2023-12-07T00:46:52;101087.31;;;2.37;100.00
4576;BME280;2300;51.874;8.430;2023-12-07T00:49:18;101094.09;;;2.33;100.00
4576;BME280;2300;51.874;8.430;2023-12-07T00:51:45;101096.97;;;2.31;100.00
4576;BME280;2300;51.874;8.430;2023-12-07T00:54:12;101099.81;;;2.30;100.00
4576;BME280;2300;51.874;8.430;2023-12-07T00:56:39;101104.25;;;2.23;100.00
4576;BME280;2300;51.874;8.430;2023-12-07T00:59:05;101098.66;;;2.16;100.00
4576;BME280;2300;51.874;8.430;2023-12-07T01:01:33;101098.28;;;2.03;100.00
4576;BME280;2300;51.874;8.430;2023-12-07T01:04:00;101105.41;;;1.96;100.00
4576;BME280;2300;51.874;8.430;2023-12-07T01:06:28;101109.28;;;1.93;100.00
4576;BME280;2300;51.874;8.430;2023-12-07T01:08:55;101107.06;;;1.89;100.00
4576;BME280;2300;51.874;8.430;2023-12-07T01:11:21;101124.16;;;1.81;100.00
4576;BME280;2300;51.874;8.430;2023-12-07T01:13:48;101112.97;;;1.76;100.00
4576;BME280;2300;51.874;8.430;2023-12-07T01:16:15;101114.00;;;1.75;100.00
4576;BME280;2300;51.874;8.430;2023-12-07T01:18:43;101104.47;;;1.71;100.00
4576;BME280;2300;51.874;8.430;2023-12-07T01:21:09;101108.88;;;1.72;100.00
4576;BME280;2300;51.874;8.430;2023-12-07T01:23:37;101106.81;;;1.66;100.00
4576;BME280;2300;51.874;8.430;2023-12-07T01:26:03;101110.56;;;1.65;100.00
4576;BME280;2300;51.874;8.430;2023-12-07T01:28:30;101114.59;;;1.53;100.00
4576;BME280;2300;51.874;8.430;2023-12-07T01:30:57;101114.75;;;1.52;100.00
4576;BME280;2300;51.874;8.430;2023-12-07T01:33:23;101110.50;;;1.49;100.00
4576;BME280;2300;51.874;8.430;2023-12-07T01:35:51;101112.88;;;1.44;100.00
4576;BME280;2300;51.874;8.430;2023-12-07T01:38:19;101106.03;;;1.32;100.00
4576;BME280;2300;51.874;8.430;2023-12-07T01:40:45;101121.28;;;1.33;100.00
4576;BME280;2300;51.874;8.430;2023-12-07T01:43:12;101109.38;;;1.26;100.00
4576;BME280;2300;51.874;8.430;2023-12-07T01:45:38;101114.78;;;1.18;100.00
4576;BME280;2300;51.874;8.430;2023-12-07T01:48:05;101112.06;;;1.18;100.00
4576;BME280;2300;51.874;8.430;2023-12-07T01:50:34;101120.47;;;1.15;100.00
4576;BME280;2300;51.874;8.430;2023-12-07T01:53:03;101128.25;;;1.10;100.00
4576;BME280;2300;51.874;8.430;2023-12-07T01:55:31;101127.88;;;1.04;100.00
4576;BME280;2300;51.874;8.430;2023-12-07T01:57:58;101138.53;;;1.06;100.00
4576;BME280;2300;51.874;8.430;2023-12-07T02:00:26;101130.50;;;0.88;100.00
4576;BME280;2300;51.874;8.430;2023-12-07T02:02:53;101135.91;;;0.88;100.00
4576;BME280;2300;51.874;8.430;2023-12-07T02:05:20;101139.91;;;0.84;100.00
4576;BME280;2300;51.874;8.430;2023-12-07T02:07:46;101147.03;;;0.85;100.00
4576;BME280;2300;51.874;8.430;2023-12-07T02:10:14;101146.88;;;0.87;100.00
4576;BME280;2300;51.874;8.430;2023-12-07T02:12:41;101144.69;;;0.90;100.00
4576;BME280;2300;51.874;8.430;2023-12-07T02:15:08;101142.84;;;0.91;100.00
4576;BME280;2300;51.874;8.430;2023-12-07T02:17:45;101143.31;;;0.86;100.00
4576;BME280;2300;51.874;8.430;2023-12-07T02:20:18;101148.34;;;0.81;100.00
4576;BME280;2300;51.874;8.430;2023-12-07T02:22:49;101151.91;;;0.82;100.00
4576;BME280;2300;51.874;8.430;2023-12-07T02:25:24;101149.69;;;0.77;100.00
4576;BME280;2300;51.874;8.430;2023-12-07T02:27:55;101155.03;;;0.69;100.00
4576;BME280;2300;51.874;8.430;2023-12-07T02:30:22;101157.25;;;0.74;100.00
4576;BME280;2300;51.874;8.430;2023-12-07T02:32:52;101145.28;;;0.76;100.00
4576;BME280;2300;51.874;8.430;2023-12-07T02:35:19;101143.44;;;0.59;100.00
4576;BME280;2300;51.874;8.430;2023-12-07T02:37:48;101138.38;;;0.56;100.00
4576;BME280;2300;51.874;8.430;2023-12-07T02:40:18;101154.41;;;0.75;100.00
4576;BME280;2300;51.874;8.430;2023-12-07T02:42:48;101157.69;;;0.61;100.00
4576;BME280;2300;51.874;8.430;2023-12-07T02:45:16;101155.41;;;0.74;100.00
4576;BME280;2300;51.874;8.430;2023-12-07T02:47:43;101139.03;;;0.58;100.00
4576;BME280;2300;51.874;8.430;2023-12-07T02:50:11;101162.56;;;0.83;100.00
4576;BME280;2300;51.874;8.430;2023-12-07T02:52:38;101163.88;;;0.79;100.00
4576;BME280;2300;51.874;8.430;2023-12-07T02:55:06;101164.63;;;0.89;100.00
4576;BME280;2300;51.874;8.430;2023-12-07T02:57:31;101167.88;;;0.93;100.00
4576;BME280;2300;51.874;8.430;2023-12-07T03:00:02;101150.38;;;0.79;100.00
4576;BME280;2300;51.874;8.430;2023-12-07T03:02:33;101174.16;;;0.93;100.00
4576;BME280;2300;51.874;8.430;2023-12-07T03:04:59;101172.81;;;0.97;100.00
4576;BME280;2300;51.874;8.430;2023-12-07T03:07:26;101172.13;;;0.95;100.00
4576;BME280;2300;51.874;8.430;2023-12-07T03:09:53;101178.28;;;1.05;100.00
4576;BME280;2300;51.874;8.430;2023-12-07T03:12:19;101176.25;;;1.08;100.00
4576;BME280;2300;51.874;8.430;2023-12-07T03:14:46;101175.19;;;1.00;100.00
4576;BME280;2300;51.874;8.430;2023-12-07T03:17:13;101179.97;;;1.06;100.00
4576;BME280;2300;51.874;8.430;2023-12-07T03:19:41;101181.03;;;1.14;100.00
4576;BME280;2300;51.874;8.430;2023-12-07T03:22:08;101168.63;;;1.03;100.00
4576;BME280;2300;51.874;8.430;2023-12-07T03:24:35;101160.16;;;0.98;100.00
4576;BME280;2300;51.874;8.430;2023-12-07T03:27:02;101170.63;;;1.01;100.00
4576;BME280;2300;51.874;8.430;2023-12-07T03:29:29;101151.97;;;0.90;100.00
4576;BME280;2300;51.874;8.430;2023-12-07T03:31:56;101175.53;;;0.97;100.00
4576;BME280;2300;51.874;8.430;2023-12-07T03:34:23;101169.66;;;0.84;100.00
4576;BME280;2300;51.874;8.430;2023-12-07T03:36:51;101160.66;;;0.58;100.00
4576;BME280;2300;51.874;8.430;2023-12-07T03:39:17;101156.59;;;0.54;100.00
4576;BME280;2300;51.874;8.430;2023-12-07T03:41:46;101153.75;;;0.55;100.00
4576;BME280;2300;51.874;8.430;2023-12-07T03:44:13;101142.56;;;0.33;100.00
4576;BME280;2300;51.874;8.430;2023-12-07T03:46:39;101162.56;;;0.22;100.00
4576;BME280;2300;51.874;8.430;2023-12-07T03:49:06;101164.00;;;0.16;100.00
4576;BME280;2300;51.874;8.430;2023-12-07T03:51:32;101173.75;;;0.27;100.00
4576;BME280;2300;51.874;8.430;2023-12-07T03:54:02;101130.66;;;-0.10;100.00
4576;BME280;2300;51.874;8.430;2023-12-07T03:56:32;101178.63;;;0.24;100.00
4576;BME280;2300;51.874;8.430;2023-12-07T03:58:59;101175.66;;;0.17;100.00
4576;BME280;2300;51.874;8.430;2023-12-07T04:01:27;101180.38;;;-0.03;100.00
4576;BME280;2300;51.874;8.430;2023-12-07T04:03:55;101177.09;;;-0.24;100.00
4576;BME280;2300;51.874;8.430;2023-12-07T04:06:22;101178.31;;;-0.18;100.00
4576;BME280;2300;51.874;8.430;2023-12-07T04:08:49;101173.84;;;-0.10;100.00
4576;BME280;2300;51.874;8.430;2023-12-07T04:11:17;101174.88;;;-0.11;100.00
4576;BME280;2300;51.874;8.430;2023-12-07T04:13:44;101170.94;;;-0.16;100.00
4576;BME280;2300;51.874;8.430;2023-12-07T04:16:11;101165.50;;;-0.34;100.00
4576;BME280;2300;51.874;8.430;2023-12-07T04:18:38;101168.91;;;-0.32;100.00
4576;BME280;2300;51.874;8.430;2023-12-07T04:21:05;101169.91;;;-0.33;100.00
4576;BME280;2300;51.874;8.430;2023-12-07T04:23:31;101162.31;;;-0.47;100.00
4576;BME280;2300;51.874;8.430;2023-12-07T04:25:58;101170.09;;;-0.44;100.00
4576;BME280;2300;51.874;8.430;2023-12-07T04:28:26;101177.19;;;-0.43;100.00
4576;BME280;2300;51.874;8.430;2023-12-07T04:30:53;101174.03;;;-0.39;100.00
4576;BME280;2300;51.874;8.430;2023-12-07T04:33:20;101174.44;;;-0.34;100.00
4576;BME280;2300;51.874;8.430;2023-12-07T04:35:46;101174.00;;;-0.29;100.00
4576;BME280;2300;51.874;8.430;2023-12-07T04:38:15;101178.00;;;-0.33;100.00
4576;BME280;2300;51.874;8.430;2023-12-07T04:40:42;101178.19;;;-0.17;100.00
4576;BME280;2300;51.874;8.430;2023-12-07T04:43:08;101186.16;;;-0.15;100.00
4576;BME280;2300;51.874;8.430;2023-12-07T04:45:36;101188.59;;;-0.04;100.00
4576;BME280;2300;51.874;8.430;2023-12-07T04:48:04;101190.69;;;0.02;100.00
4576;BME280;2300;51.874;8.430;2023-12-07T04:50:30;101191.09;;;0.07;100.00
4576;BME280;2300;51.874;8.430;2023-12-07T04:52:58;101189.56;;;0.04;100.00
4576;BME280;2300;51.874;8.430;2023-12-07T04:55:24;101182.47;;;0.03;100.00
4576;BME280;2300;51.874;8.430;2023-12-07T04:57:51;101183.59;;;0.01;100.00
4576;BME280;2300;51.874;8.430;2023-12-07T05:00:18;101193.34;;;0.11;100.00
4576;BME280;2300;51.874;8.430;2023-12-07T05:02:48;101189.97;;;0.09;100.00
4576;BME280;2300;51.874;8.430;2023-12-07T05:05:14;101193.06;;;0.14;100.00
4576;BME280;2300;51.874;8.430;2023-12-07T05:07:41;101185.88;;;0.23;100.00
4576;BME280;2300;51.874;8.430;2023-12-07T05:10:08;101194.50;;;0.27;100.00
4576;BME280;2300;51.874;8.430;2023-12-07T05:12:34;101186.72;;;0.24;100.00
4576;BME280;2300;51.874;8.430;2023-12-07T05:15:01;101195.22;;;0.29;100.00
4576;BME280;2300;51.874;8.430;2023-12-07T05:17:29;101198.06;;;0.27;99.93
4576;BME280;2300;51.874;8.430;2023-12-07T05:19:57;101195.69;;;0.24;100.00
4576;BME280;2300;51.874;8.430;2023-12-07T05:22:23;101200.16;;;0.15;100.00
4576;BME280;2300;51.874;8.430;2023-12-07T05:24:50;101195.53;;;0.26;100.00
4576;BME280;2300;51.874;8.430;2023-12-07T05:27:16;101184.34;;;0.20;100.00
4576;BME280;2300;51.874;8.430;2023-12-07T05:29:43;101192.13;;;0.41;100.00
4576;BME280;2300;51.874;8.430;2023-12-07T05:32:10;101190.25;;;0.42;100.00
4576;BME280;2300;51.874;8.430;2023-12-07T05:34:39;101192.66;;;0.45;100.00
4576;BME280;2300;51.874;8.430;2023-12-07T05:37:07;101194.00;;;0.41;100.00
4576;BME280;2300;51.874;8.430;2023-12-07T05:39:34;101193.75;;;0.52;100.00
4576;BME280;2300;51.874;8.430;2023-12-07T05:42:00;101196.13;;;0.55;100.00
4576;BME280;2300;51.874;8.430;2023-12-07T05:44:29;101197.53;;;0.59;100.00
4576;BME280;2300;51.874;8.430;2023-12-07T05:46:56;101199.59;;;0.65;100.00
4576;BME280;2300;51.874;8.430;2023-12-07T05:49:22;101207.34;;;0.60;100.00
4576;BME280;2300;51.874;8.430;2023-12-07T05:51:49;101212.13;;;0.66;100.00
4576;BME280;2300;51.874;8.430;2023-12-07T05:54:17;101205.47;;;0.60;100.00
4576;BME280;2300;51.874;8.430;2023-12-07T05:56:45;101223.31;;;0.71;100.00
4576;BME280;2300;51.874;8.430;2023-12-07T05:59:12;101215.25;;;0.79;100.00
4576;BME280;2300;51.874;8.430;2023-12-07T06:01:38;101213.31;;;0.89;100.00
4576;BME280;2300;51.874;8.430;2023-12-07T06:04:07;101223.88;;;1.00;100.00
4576;BME280;2300;51.874;8.430;2023-12-07T06:06:34;101217.13;;;1.04;100.00
4576;BME280;2300;51.874;8.430;2023-12-07T06:09:00;101226.97;;;1.05;100.00
4576;BME280;2300;51.874;8.430;2023-12-07T06:11:29;101215.13;;;1.06;100.00
4576;BME280;2300;51.874;8.430;2023-12-07T06:13:56;101219.69;;;1.06;100.00
4576;BME280;2300;51.874;8.430;2023-12-07T06:16:24;101212.59;;;1.05;100.00
4576;BME280;2300;51.874;8.430;2023-12-07T06:18:51;101226.34;;;1.12;100.00
4576;BME280;2300;51.874;8.430;2023-12-07T06:21:18;101219.59;;;1.16;100.00
4576;BME280;2300;51.874;8.430;2023-12-07T06:23:44;101214.81;;;1.10;100.00
4576;BME280;2300;51.874;8.430;2023-12-07T06:26:11;101222.28;;;1.16;100.00
4576;BME280;2300;51.874;8.430;2023-12-07T06:28:40;101180.19;;;0.87;100.00
4576;BME280;2300;51.874;8.430;2023-12-07T06:31:11;101224.75;;;1.27;100.00
4576;BME280;2300;51.874;8.430;2023-12-07T06:33:40;101232.44;;;1.14;100.00
4576;BME280;2300;51.874;8.430;2023-12-07T06:36:07;101230.78;;;1.21;100.00
4576;BME280;2300;51.874;8.430;2023-12-07T06:38:34;101227.72;;;1.16;100.00
4576;BME280;2300;51.874;8.430;2023-12-07T06:41:01;101242.69;;;1.28;100.00
4576;BME280;2300;51.874;8.430;2023-12-07T06:43:27;101237.31;;;1.36;100.00
4576;BME280;2300;51.874;8.430;2023-12-07T06:45:55;101232.94;;;1.35;100.00
4576;BME280;2300;51.874;8.430;2023-12-07T06:48:22;101235.22;;;1.30;100.00
4576;BME280;2300;51.874;8.430;2023-12-07T06:50:48;101232.22;;;1.33;100.00
4576;BME280;2300;51.874;8.430;2023-12-07T06:53:16;101250.22;;;1.42;100.00
4576;BME280;2300;51.874;8.430;2023-12-07T06:55:43;101244.44;;;1.37;100.00
4576;BME280;2300;51.874;8.430;2023-12-07T06:58:10;101256.00;;;1.47;100.00
4576;BME280;2300;51.874;8.430;2023-12-07T07:00:36;101258.06;;;1.53;100.00
4576;BME280;2300;51.874;8.430;2023-12-07T07:03:05;101245.00;;;1.48;100.00
4576;BME280;2300;51.874;8.430;2023-12-07T07:05:32;101256.34;;;1.52;100.00
4576;BME280;2300;51.874;8.430;2023-12-07T07:08:00;101266.22;;;1.61;100.00
4576;BME280;2300;51.874;8.430;2023-12-07T07:10:29;101264.06;;;1.65;100.00
4576;BME280;2300;51.874;8.430;2023-12-07T07:12:59;101263.22;;;1.64;100.00
4576;BME280;2300;51.874;8.430;2023-12-07T07:15:26;101245.50;;;1.44;100.00
4576;BME280;2300;51.874;8.430;2023-12-07T07:17:52;101265.56;;;1.59;100.00
4576;BME280;2300;51.874;8.430;2023-12-07T07:20:20;101265.91;;;1.64;100.00
4576;BME280;2300;51.874;8.430;2023-12-07T07:22:47;101262.50;;;1.62;100.00
4576;BME280;2300;51.874;8.430;2023-12-07T07:25:16;101256.78;;;1.65;100.00
4576;BME280;2300;51.874;8.430;2023-12-07T07:27:45;101261.47;;;1.55;100.00
4576;BME280;2300;51.874;8.430;2023-12-07T07:30:13;101262.84;;;1.59;100.00
4576;BME280;2300;51.874;8.430;2023-12-07T07:32:40;101265.69;;;1.58;100.00
4576;BME280;2300;51.874;8.430;2023-12-07T07:35:07;101268.66;;;1.72;100.00
4576;BME280;2300;51.874;8.430;2023-12-07T07:37:38;101267.28;;;1.68;100.00
4576;BME280;2300;51.874;8.430;2023-12-07T07:40:09;101274.44;;;1.77;100.00
4576;BME280;2300;51.874;8.430;2023-12-07T07:42:37;101258.38;;;1.76;100.00
4576;BME280;2300;51.874;8.430;2023-12-07T07:45:04;101262.09;;;1.75;100.00
4576;BME280;2300;51.874;8.430;2023-12-07T07:47:32;101263.78;;;1.76;100.00
4576;BME280;2300;51.874;8.430;2023-12-07T07:50:00;101256.31;;;1.70;100.00
4576;BME280;2300;51.874;8.430;2023-12-07T07:52:31;101263.56;;;1.69;100.00
4576;BME280;2300;51.874;8.430;2023-12-07T07:55:00;101261.25;;;1.82;100.00
4576;BME280;2300;51.874;8.430;2023-12-07T07:57:28;101260.59;;;1.80;100.00
4576;BME280;2300;51.874;8.430;2023-12-07T07:59:54;101261.63;;;1.87;100.00
4576;BME280;2300;51.874;8.430;2023-12-07T08:02:21;101263.66;;;1.85;100.00
4576;BME280;2300;51.874;8.430;2023-12-07T08:04:47;101265.81;;;1.82;100.00
4576;BME280;2300;51.874;8.430;2023-12-07T08:07:14;101258.25;;;1.85;100.00
4576;BME280;2300;51.874;8.430;2023-12-07T08:09:42;101259.09;;;1.86;100.00
4576;BME280;2300;51.874;8.430;2023-12-07T08:12:10;101259.75;;;1.80;100.00
4576;BME280;2300;51.874;8.430;2023-12-07T08:14:36;101259.88;;;1.78;100.00
4576;BME280;2300;51.874;8.430;2023-12-07T08:17:03;101261.97;;;1.84;100.00
4576;BME280;2300;51.874;8.430;2023-12-07T08:19:29;101268.22;;;1.85;100.00
4576;BME280;2300;51.874;8.430;2023-12-07T08:21:56;101268.44;;;2.00;100.00
4576;BME280;2300;51.874;8.430;2023-12-07T08:24:23;101277.44;;;2.00;100.00
4576;BME280;2300;51.874;8.430;2023-12-07T08:26:50;101274.53;;;1.93;100.00
4576;BME280;2300;51.874;8.430;2023-12-07T08:29:18;101276.59;;;2.00;100.00
4576;BME280;2300;51.874;8.430;2023-12-07T08:31:44;101285.41;;;2.02;100.00
4576;BME280;2300;51.874;8.430;2023-12-07T08:34:12;101285.41;;;2.02;100.00
4576;BME280;2300;51.874;8.430;2023-12-07T08:36:40;101286.34;;;1.92;100.00
4576;BME280;2300;51.874;8.430;2023-12-07T08:39:07;101288.13;;;2.02;100.00
4576;BME280;2300;51.874;8.430;2023-12-07T08:41:34;101283.38;;;2.04;100.00
4576;BME280;2300;51.874;8.430;2023-12-07T08:44:01;101282.84;;;2.00;100.00
4576;BME280;2300;51.874;8.430;2023-12-07T08:46:29;101272.72;;;2.10;100.00
4576;BME280;2300;51.874;8.430;2023-12-07T08:48:55;101273.44;;;2.20;100.00
4576;BME280;2300;51.874;8.430;2023-12-07T08:51:22;101281.41;;;2.22;100.00
4576;BME280;2300;51.874;8.430;2023-12-07T08:53:49;101273.75;;;2.09;100.00
4576;BME280;2300;51.874;8.430;2023-12-07T08:56:17;101277.50;;;2.16;100.00
4576;BME280;2300;51.874;8.430;2023-12-07T08:58:43;101263.72;;;2.02;100.00
4576;BME280;2300;51.874;8.430;2023-12-07T09:01:10;101277.88;;;2.29;100.00
4576;BME280;2300;51.874;8.430;2023-12-07T09:03:38;101292.63;;;2.35;100.00
4576;BME280;2300;51.874;8.430;2023-12-07T09:06:07;101280.13;;;2.42;100.00
4576;BME280;2300;51.874;8.430;2023-12-07T09:08:34;101276.06;;;2.38;99.57
4576;BME280;2300;51.874;8.430;2023-12-07T09:11:03;101279.28;;;2.50;100.00
4576;BME280;2300;51.874;8.430;2023-12-07T09:13:30;101270.78;;;2.45;99.44
4576;BME280;2300;51.874;8.430;2023-12-07T09:15:56;101284.78;;;2.74;100.00
4576;BME280;2300;51.874;8.430;2023-12-07T09:18:23;101294.75;;;2.82;99.68
4576;BME280;2300;51.874;8.430;2023-12-07T09:20:52;101286.97;;;2.87;99.28
4576;BME280;2300;51.874;8.430;2023-12-07T09:23:19;101282.06;;;2.82;98.43
4576;BME280;2300;51.874;8.430;2023-12-07T09:25:46;101286.31;;;2.93;98.03
4576;BME280;2300;51.874;8.430;2023-12-07T09:28:15;101278.84;;;2.78;97.57
4576;BME280;2300;51.874;8.430;2023-12-07T09:30:41;101282.09;;;2.90;97.94
4576;BME280;2300;51.874;8.430;2023-12-07T09:33:09;101287.81;;;2.79;97.21
4576;BME280;2300;51.874;8.430;2023-12-07T09:35:35;101293.06;;;2.81;96.71
4576;BME280;2300;51.874;8.430;2023-12-07T09:38:03;101294.63;;;3.07;96.58
4576;BME280;2300;51.874;8.430;2023-12-07T09:40:30;101301.25;;;3.21;97.09
4576;BME280;2300;51.874;8.430;2023-12-07T09:42:56;101299.22;;;3.15;96.29
4576;BME280;2300;51.874;8.430;2023-12-07T09:45:23;101303.28;;;3.19;95.49
4576;BME280;2300;51.874;8.430;2023-12-07T09:47:50;101301.25;;;3.21;95.30
4576;BME280;2300;51.874;8.430;2023-12-07T09:50:18;101305.66;;;3.30;94.73
4576;BME280;2300;51.874;8.430;2023-12-07T09:52:47;101300.72;;;3.17;94.92
4576;BME280;2300;51.874;8.430;2023-12-07T09:55:18;101304.31;;;3.26;94.73
4576;BME280;2300;51.874;8.430;2023-12-07T09:57:45;101298.53;;;3.29;95.17
4576;BME280;2300;51.874;8.430;2023-12-07T10:00:13;101298.88;;;3.26;94.08
4576;BME280;2300;51.874;8.430;2023-12-07T10:02:41;101292.91;;;3.22;94.06
4576;BME280;2300;51.874;8.430;2023-12-07T10:05:09;101293.06;;;3.37;94.55
4576;BME280;2300;51.874;8.430;2023-12-07T10:07:38;101287.63;;;3.37;94.51
4576;BME280;2300;51.874;8.430;2023-12-07T10:10:06;101283.94;;;3.30;94.02
4576;BME280;2300;51.874;8.430;2023-12-07T10:12:35;101275.25;;;3.51;93.23
4576;BME280;2300;51.874;8.430;2023-12-07T10:15:11;101277.81;;;3.52;92.99
4576;BME280;2300;51.874;8.430;2023-12-07T10:17:46;101283.59;;;3.41;92.62
4576;BME280;2300;51.874;8.430;2023-12-07T10:20:15;101277.13;;;3.42;92.97
4576;BME280;2300;51.874;8.430;2023-12-07T10:22:42;101263.06;;;3.22;91.68
4576;BME280;2300;51.874;8.430;2023-12-07T10:25:10;101257.09;;;3.27;91.76
4576;BME280;2300;51.874;8.430;2023-12-07T10:27:40;101259.34;;;3.32;92.33
4576;BME280;2300;51.874;8.430;2023-12-07T10:30:09;101248.66;;;3.30;92.45
4576;BME280;2300;51.874;8.430;2023-12-07T10:32:37;101257.44;;;3.40;92.17
4576;BME280;2300;51.874;8.430;2023-12-07T10:35:06;101255.06;;;3.45;92.26
4576;BME280;2300;51.874;8.430;2023-12-07T10:37:33;101251.34;;;3.46;92.46
4576;BME280;2300;51.874;8.430;2023-12-07T10:40:00;101247.06;;;3.44;91.55
4576;BME280;2300;51.874;8.430;2023-12-07T10:42:30;101245.19;;;3.60;92.31
4576;BME280;2300;51.874;8.430;2023-12-07T10:45:03;101237.72;;;3.54;91.65
4576;BME280;2300;51.874;8.430;2023-12-07T10:47:32;101238.41;;;3.56;91.56
4576;BME280;2300;51.874;8.430;2023-12-07T10:50:00;101229.69;;;3.69;91.21
4576;BME280;2300;51.874;8.430;2023-12-07T10:52:31;101214.19;;;3.86;91.47
4576;BME280;2300;51.874;8.430;2023-12-07T10:55:02;101224.16;;;4.32;91.69
4576;BME280;2300;51.874;8.430;2023-12-07T10:57:30;101213.56;;;4.45;89.58
4576;BME280;2300;51.874;8.430;2023-12-07T11:00:01;101218.94;;;4.54;88.08
4576;BME280;2300;51.874;8.430;2023-12-07T11:02:29;101211.09;;;4.28;87.83
4576;BME280;2300;51.874;8.430;2023-12-07T11:04:57;101202.88;;;4.36;87.32
4576;BME280;2300;51.874;8.430;2023-12-07T11:07:25;101208.19;;;3.98;87.92
4576;BME280;2300;51.874;8.430;2023-12-07T11:09:59;101198.47;;;3.73;89.06
4576;BME280;2300;51.874;8.430;2023-12-07T11:12:32;101197.00;;;3.93;88.99
4576;BME280;2300;51.874;8.430;2023-12-07T11:15:02;101192.19;;;3.73;89.68
4576;BME280;2300;51.874;8.430;2023-12-07T11:17:29;101200.44;;;3.79;89.43
4576;BME280;2300;51.874;8.430;2023-12-07T11:19:56;101183.66;;;3.76;90.24
4576;BME280;2300;51.874;8.430;2023-12-07T11:22:23;101188.09;;;3.77;89.99
4576;BME280;2300;51.874;8.430;2023-12-07T11:24:52;101175.16;;;3.79;89.77
4576;BME280;2300;51.874;8.430;2023-12-07T11:27:19;101175.47;;;3.84;89.02
4576;BME280;2300;51.874;8.430;2023-12-07T11:29:47;101173.19;;;3.64;88.52
4576;BME280;2300;51.874;8.430;2023-12-07T11:32:15;101174.34;;;3.70;88.25
4576;BME280;2300;51.874;8.430;2023-12-07T11:34:44;101167.59;;;3.58;88.70
4576;BME280;2300;51.874;8.430;2023-12-07T11:37:19;101167.91;;;3.63;88.81
4576;BME280;2300;51.874;8.430;2023-12-07T11:39:45;101164.66;;;3.76;88.84
4576;BME280;2300;51.874;8.430;2023-12-07T11:42:15;101170.53;;;3.87;88.41
4576;BME280;2300;51.874;8.430;2023-12-07T11:44:43;101163.94;;;3.82;88.22
4576;BME280;2300;51.874;8.430;2023-12-07T11:47:18;101165.59;;;3.91;88.06
4576;BME280;2300;51.874;8.430;2023-12-07T11:49:45;101155.25;;;3.86;88.04
4576;BME280;2300;51.874;8.430;2023-12-07T11:52:13;101148.09;;;3.93;87.76
4576;BME280;2300;51.874;8.430;2023-12-07T11:54:40;101151.22;;;3.82;88.01
4576;BME280;2300;51.874;8.430;2023-12-07T11:57:06;101141.44;;;3.96;88.23
4576;BME280;2300;51.874;8.430;2023-12-07T11:59:33;101140.56;;;4.03;87.88
4576;BME280;2300;51.874;8.430;2023-12-07T12:02:00;101146.22;;;3.94;88.05
4576;BME280;2300;51.874;8.430;2023-12-07T12:04:29;101144.84;;;3.98;88.88
4576;BME280;2300;51.874;8.430;2023-12-07T12:06:56;101144.78;;;4.06;88.27
4576;BME280;2300;51.874;8.430;2023-12-07T12:09:24;101131.34;;;4.04;89.24
4576;BME280;2300;51.874;8.430;2023-12-07T12:11:51;101136.44;;;4.07;88.48
4576;BME280;2300;51.874;8.430;2023-12-07T12:14:18;101131.16;;;4.14;88.25
4576;BME280;2300;51.874;8.430;2023-12-07T12:16:45;101103.06;;;3.99;87.78
4576;BME280;2300;51.874;8.430;2023-12-07T12:19:12;101118.41;;;4.15;87.73
4576;BME280;2300;51.874;8.430;2023-12-07T12:21:41;101118.22;;;4.16;87.06
4576;BME280;2300;51.874;8.430;2023-12-07T12:24:09;101110.34;;;4.21;87.12
4576;BME280;2300;51.874;8.430;2023-12-07T12:26:37;101109.91;;;4.10;87.54
4576;BME280;2300;51.874;8.430;2023-12-07T12:29:06;101105.84;;;4.14;87.64
4576;BME280;2300;51.874;8.430;2023-12-07T12:31:34;101102.31;;;4.05;86.85
4576;BME280;2300;51.874;8.430;2023-12-07T12:34:01;101095.13;;;4.12;87.13
4576;BME280;2300;51.874;8.430;2023-12-07T12:36:28;101100.81;;;4.25;87.31
4576;BME280;2300;51.874;8.430;2023-12-07T12:38:56;101109.94;;;4.32;87.55
4576;BME280;2300;51.874;8.430;2023-12-07T12:41:23;101109.38;;;4.45;87.26
4576;BME280;2300;51.874;8.430;2023-12-07T12:43:49;101101.25;;;4.37;86.54
4576;BME280;2300;51.874;8.430;2023-12-07T12:46:18;101091.75;;;4.33;86.49
4576;BME280;2300;51.874;8.430;2023-12-07T12:48:55;101096.00;;;4.35;86.79
4576;BME280;2300;51.874;8.430;2023-12-07T12:51:24;101084.13;;;4.28;85.90
4576;BME280;2300;51.874;8.430;2023-12-07T12:53:56;101076.00;;;4.28;85.83
4576;BME280;2300;51.874;8.430;2023-12-07T12:56:23;101079.34;;;4.30;85.83
4576;BME280;2300;51.874;8.430;2023-12-07T12:58:50;101065.53;;;4.17;85.89
4576;BME280;2300;51.874;8.430;2023-12-07T13:01:17;101067.34;;;4.25;86.47
4576;BME280;2300;51.874;8.430;2023-12-07T13:03:45;101063.72;;;4.32;86.27
4576;BME280;2300;51.874;8.430;2023-12-07T13:06:12;101066.97;;;4.28;85.99
4576;BME280;2300;51.874;8.430;2023-12-07T13:08:39;101065.03;;;4.36;85.83
4576;BME280;2300;51.874;8.430;2023-12-07T13:11:07;101051.75;;;4.41;84.97
4576;BME280;2300;51.874;8.430;2023-12-07T13:13:34;101042.28;;;4.37;84.94